Everett, WA (98206)

9:15 AM PDT on August 28, 2014 (GMT -0700)
Kains Station | Change Station
CLOSE
Current Station
Personal Weather Station
Location: Everett, WA
Elevation: 282 ft
Nearby Weather Stations

Elev 282 ft 47.93 °N, 122.24 °W | Updated 1 second ago

Overcast
Overcast
59.7 °F
Feels Like 59.7 °F
N
8.0
Wind Variable Wind from SSE
Gusts 11.0 mph

Today
High -- | Low -- °F
--% Chance of Precip.
Yesterday
High -- | Low -- °F
Precip. -- in
6:21 AM 7:57 PM
Waxing Crescent, 9% visible
Pressure 30.10 in
Visibility 10.0 miles
Clouds Overcast 900 ft
Dew Point 57 °F
Humidity 92%
Rainfall 0.00 in
Snow Depth Not available.
UV 1 out of 12
Pollen 2.50 out of 12
PM2.5 Good
Flu Activity Not available.
METAR KPAE 281553Z 18008KT 10SM OVC009 16/14 A3011 RMK AO2 SLP193 T01610139

More Conditions Fewer Conditions

Pressure 30.10 in
Visibility 10.0 miles
Clouds Overcast 900 ft
Dew Point 57 °F
Humidity 92%
Rainfall 0.00 in
Snow Depth Not available.
UV 1 out of 12
Pollen 2.50 out of 12
PM2.5 Good
Flu Activity Not available.
METAR KPAE 281553Z 18008KT 10SM OVC009 16/14 A3011 RMK AO2 SLP193 T01610139

More Conditions Fewer Conditions

10-Day Weather Forecast

Almanac

Astronomy

Aug. 28, 2014 Rise Set
Actual Time 6:21 AM PDT 7:57 PM PDT
Civil Twilight 5:49 AM PDT 8:29 PM PDT
Nautical Twilight 5:09 AM PDT 9:09 PM PDT
Astronomical Twilight 4:26 AM PDT 9:52 PM PDT
Moon 9:35 AM PDT 9:06 PM PDT
Length of Visible Light 14h 40m
Length of Day
13h 35m
Tomorrow will be 3m 18s shorter.
Waxing Crescent, 9% of the Moon is Illuminated
Today
Waxing Crescent
Sep 2
First Quarter
Sep 8
Full
Sep 15
Last Quarter
Sep 24
New

Today's Extremes

State Highs State Lows

Community

WunderPhotos

Upload Photos

1,748,004 photos uploaded!

Nearby

Air Quality

  Air Quality AQ Index Pollutant
Yesterday Good
PM2.5
Current Good
PM2.5
Thursday Good
OZONE
Thursday Good
PM2.5
Friday Good
OZONE
Friday Good
PM2.5
Saturday Good
OZONE
Saturday Good
PM2.5

Snow Depth

Station Depth Elevation
Alpine Meadows 0 in 3500 ft
Mount Crag 0 in 4050 ft
Dungeness 0 in 4100 ft
Mount Gardner 0 in 3000 ft
Olallie Meadows 1 in 3700 ft

Earthquake Activity

City Distance Mag. Time & Date
No recent earthquake activity has been reported nearby.
Minimum magnitude displayed is 2.5.

Coastal Water Temperatures

Place Temperature
Port Townsend, WA 53.1 °F
Seattle, WA 55.9 °F
Friday Harbor, WA 53.1 °F
Tacoma, WA 55.0 °F

Nearby Weather Stations